sensor_id;sensor_type;location;lat;lon;timestamp;pressure;altitude;pressure_sealevel;temperature;humidity
64544;BME280;50936;51.660;5.616;2023-05-03T00:01:23;102522.00;;;5.75;100.00
64544;BME280;50936;51.660;5.616;2023-05-03T00:03:51;102520.28;;;5.71;100.00
64544;BME280;50936;51.660;5.616;2023-05-03T00:06:18;102519.47;;;5.68;100.00
64544;BME280;50936;51.660;5.616;2023-05-03T00:08:45;102520.44;;;5.65;100.00
64544;BME280;50936;51.660;5.616;2023-05-03T00:11:12;102514.25;;;5.62;100.00
64544;BME280;50936;51.660;5.616;2023-05-03T00:13:39;102526.81;;;5.59;100.00
64544;BME280;50936;51.660;5.616;2023-05-03T00:16:06;102525.03;;;5.58;100.00
64544;BME280;50936;51.660;5.616;2023-05-03T00:18:33;102524.22;;;5.55;100.00
64544;BME280;50936;51.660;5.616;2023-05-03T00:21:00;102519.78;;;5.54;100.00
64544;BME280;50936;51.660;5.616;2023-05-03T00:23:26;102513.56;;;5.52;100.00
64544;BME280;50936;51.660;5.616;2023-05-03T00:25:55;102513.59;;;5.50;100.00
64544;BME280;50936;51.660;5.616;2023-05-03T00:28:24;102511.88;;;5.48;100.00
64544;BME280;50936;51.660;5.616;2023-05-03T00:30:52;102515.47;;;5.47;100.00
64544;BME280;50936;51.660;5.616;2023-05-03T00:33:20;102515.53;;;5.44;100.00
64544;BME280;50936;51.660;5.616;2023-05-03T00:35:47;102511.09;;;5.43;100.00
64544;BME280;50936;51.660;5.616;2023-05-03T00:38:14;102508.47;;;5.39;100.00
64544;BME280;50936;51.660;5.616;2023-05-03T00:40:41;102517.44;;;5.38;100.00
64544;BME280;50936;51.660;5.616;2023-05-03T00:43:10;102513.84;;;5.38;100.00
64544;BME280;50936;51.660;5.616;2023-05-03T00:45:38;102513.94;;;5.35;100.00
64544;BME280;50936;51.660;5.616;2023-05-03T00:48:05;102512.19;;;5.32;100.00
64544;BME280;50936;51.660;5.616;2023-05-03T00:50:35;102514.03;;;5.30;100.00
64544;BME280;50936;51.660;5.616;2023-05-03T00:53:02;102521.22;;;5.28;100.00
64544;BME280;50936;51.660;5.616;2023-05-03T00:55:30;102520.38;;;5.26;100.00
64544;BME280;50936;51.660;5.616;2023-05-03T00:57:58;102528.47;;;5.23;100.00
64544;BME280;50936;51.660;5.616;2023-05-03T01:00:25;102519.56;;;5.21;100.00
64544;BME280;50936;51.660;5.616;2023-05-03T01:02:54;102526.75;;;5.19;100.00
64544;BME280;50936;51.660;5.616;2023-05-03T01:05:22;102523.22;;;5.17;100.00
64544;BME280;50936;51.660;5.616;2023-05-03T01:11:09;102514.44;;;5.09;100.00
64544;BME280;50936;51.660;5.616;2023-05-03T01:13:51;102525.25;;;5.06;100.00
64544;BME280;50936;51.660;5.616;2023-05-03T01:16:36;102509.22;;;5.03;100.00
64544;BME280;50936;51.660;5.616;2023-05-03T01:19:36;102523.53;;;5.00;100.00
64544;BME280;50936;51.660;5.616;2023-05-03T01:25:13;102521.88;;;4.94;100.00
64544;BME280;50936;51.660;5.616;2023-05-03T01:27:42;102520.13;;;4.93;100.00
64544;BME280;50936;51.660;5.616;2023-05-03T01:30:10;102524.63;;;4.91;100.00
64544;BME280;50936;51.660;5.616;2023-05-03T01:38:47;102529.16;;;4.86;100.00
64544;BME280;50936;51.660;5.616;2023-05-03T01:41:16;102527.47;;;4.82;100.00
64544;BME280;50936;51.660;5.616;2023-05-03T01:43:45;102524.84;;;4.79;100.00
64544;BME280;50936;51.660;5.616;2023-05-03T01:46:14;102524.88;;;4.76;100.00
64544;BME280;50936;51.660;5.616;2023-05-03T01:48:43;102529.41;;;4.72;100.00
64544;BME280;50936;51.660;5.616;2023-05-03T01:51:10;102524.16;;;4.68;100.00
64544;BME280;50936;51.660;5.616;2023-05-03T01:53:36;102528.69;;;4.64;100.00
64544;BME280;50936;51.660;5.616;2023-05-03T01:56:04;102530.50;;;4.62;100.00
64544;BME280;50936;51.660;5.616;2023-05-03T01:58:31;102531.44;;;4.59;100.00
64544;BME280;50936;51.660;5.616;2023-05-03T02:00:58;102522.53;;;4.57;100.00
64544;BME280;50936;51.660;5.616;2023-05-03T02:03:25;102524.38;;;4.55;100.00
64544;BME280;50936;51.660;5.616;2023-05-03T02:05:52;102526.19;;;4.53;100.00
64544;BME280;50936;51.660;5.616;2023-05-03T02:08:19;102524.41;;;4.52;100.00
64544;BME280;50936;51.660;5.616;2023-05-03T02:10:46;102528.00;;;4.51;100.00
64544;BME280;50936;51.660;5.616;2023-05-03T02:13:14;102524.47;;;4.49;100.00
64544;BME280;50936;51.660;5.616;2023-05-03T02:15:42;102527.16;;;4.49;100.00
64544;BME280;50936;51.660;5.616;2023-05-03T02:18:09;102522.72;;;4.48;100.00
64544;BME280;50936;51.660;5.616;2023-05-03T02:20:35;102520.97;;;4.47;100.00
64544;BME280;50936;51.660;5.616;2023-05-03T02:23:03;102528.97;;;4.47;100.00
64544;BME280;50936;51.660;5.616;2023-05-03T02:25:30;102523.69;;;4.44;100.00
64544;BME280;50936;51.660;5.616;2023-05-03T02:27:57;102515.66;;;4.42;100.00
64544;BME280;50936;51.660;5.616;2023-05-03T02:30:24;102518.34;;;4.42;100.00
64544;BME280;50936;51.660;5.616;2023-05-03T02:32:51;102513.00;;;4.41;100.00
64544;BME280;50936;51.660;5.616;2023-05-03T02:35:19;102517.50;;;4.39;100.00
64544;BME280;50936;51.660;5.616;2023-05-03T02:37:46;102512.16;;;4.39;100.00
64544;BME280;50936;51.660;5.616;2023-05-03T02:40:14;102500.59;;;4.37;100.00
64544;BME280;50936;51.660;5.616;2023-05-03T02:42:43;102506.84;;;4.36;100.00
64544;BME280;50936;51.660;5.616;2023-05-03T02:45:11;102501.56;;;4.34;100.00
64544;BME280;50936;51.660;5.616;2023-05-03T02:47:38;102495.31;;;4.32;100.00
64544;BME280;50936;51.660;5.616;2023-05-03T02:50:05;102491.78;;;4.32;100.00
64544;BME280;50936;51.660;5.616;2023-05-03T02:52:37;102487.34;;;4.31;100.00
64544;BME280;50936;51.660;5.616;2023-05-03T02:55:04;102483.81;;;4.29;100.00
64544;BME280;50936;51.660;5.616;2023-05-03T02:57:32;102466.00;;;4.26;100.00
64544;BME280;50936;51.660;5.616;2023-05-03T02:59:59;102466.03;;;4.24;100.00
64544;BME280;50936;51.660;5.616;2023-05-03T03:02:26;102466.09;;;4.21;100.00
64544;BME280;50936;51.660;5.616;2023-05-03T03:04:53;102464.31;;;4.20;100.00
64544;BME280;50936;51.660;5.616;2023-05-03T03:07:22;102460.81;;;4.18;100.00
64544;BME280;50936;51.660;5.616;2023-05-03T03:09:54;102459.03;;;4.17;100.00
64544;BME280;50936;51.660;5.616;2023-05-03T03:12:21;102460.91;;;4.12;100.00
64544;BME280;50936;51.660;5.616;2023-05-03T03:14:48;102468.00;;;4.13;100.00
64544;BME280;50936;51.660;5.616;2023-05-03T03:17:14;102469.84;;;4.11;100.00
64544;BME280;50936;51.660;5.616;2023-05-03T03:19:42;102484.09;;;4.10;100.00
64544;BME280;50936;51.660;5.616;2023-05-03T03:22:09;102486.84;;;4.07;100.00
64544;BME280;50936;51.660;5.616;2023-05-03T03:24:37;102493.09;;;4.06;100.00
64544;BME280;50936;51.660;5.616;2023-05-03T03:27:04;102491.34;;;4.05;100.00
64544;BME280;50936;51.660;5.616;2023-05-03T03:29:33;102489.56;;;4.04;100.00
64544;BME280;50936;51.660;5.616;2023-05-03T03:32:02;102498.50;;;4.03;100.00
64544;BME280;50936;51.660;5.616;2023-05-03T03:34:29;102494.06;;;4.00;100.00
64544;BME280;50936;51.660;5.616;2023-05-03T03:36:57;102496.75;;;3.99;100.00
64544;BME280;50936;51.660;5.616;2023-05-03T03:39:26;102493.22;;;3.97;100.00
64544;BME280;50936;51.660;5.616;2023-05-03T03:41:53;102500.38;;;3.95;100.00
64544;BME280;50936;51.660;5.616;2023-05-03T03:44:21;102489.75;;;3.92;100.00
64544;BME280;50936;51.660;5.616;2023-05-03T03:46:47;102486.22;;;3.90;100.00
64544;BME280;50936;51.660;5.616;2023-05-03T03:49:16;102488.94;;;3.87;100.00
64544;BME280;50936;51.660;5.616;2023-05-03T03:51:43;102477.38;;;3.84;100.00
64544;BME280;50936;51.660;5.616;2023-05-03T03:54:10;102480.09;;;3.83;100.00
64544;BME280;50936;51.660;5.616;2023-05-03T03:56:41;102481.00;;;3.80;100.00
64544;BME280;50936;51.660;5.616;2023-05-03T03:59:09;102483.75;;;3.77;100.00
64544;BME280;50936;51.660;5.616;2023-05-03T04:01:36;102479.28;;;3.76;100.00
64544;BME280;50936;51.660;5.616;2023-05-03T04:04:04;102480.19;;;3.75;100.00
64544;BME280;50936;51.660;5.616;2023-05-03T04:06:31;102475.75;;;3.74;100.00
64544;BME280;50936;51.660;5.616;2023-05-03T04:09:02;102483.78;;;3.73;100.00
64544;BME280;50936;51.660;5.616;2023-05-03T04:11:32;102484.66;;;3.73;100.00
64544;BME280;50936;51.660;5.616;2023-05-03T04:14:00;102490.00;;;3.73;100.00
64544;BME280;50936;51.660;5.616;2023-05-03T04:16:29;102490.88;;;3.75;100.00
64544;BME280;50936;51.660;5.616;2023-05-03T04:19:00;102496.19;;;3.77;100.00
64544;BME280;50936;51.660;5.616;2023-05-03T04:21:29;102496.16;;;3.80;100.00
64544;BME280;50936;51.660;5.616;2023-05-03T04:23:57;102504.09;;;3.84;100.00
64544;BME280;50936;51.660;5.616;2023-05-03T04:26:25;102507.53;;;3.96;100.00
64544;BME280;50936;51.660;5.616;2023-05-03T04:29:05;102509.13;;;4.06;100.00
64544;BME280;50936;51.660;5.616;2023-05-03T04:31:34;102503.41;;;4.31;100.00
64544;BME280;50936;51.660;5.616;2023-05-03T04:34:01;102508.94;;;4.70;100.00
64544;BME280;50936;51.660;5.616;2023-05-03T04:36:28;102510.78;;;5.13;100.00
64544;BME280;50936;51.660;5.616;2023-05-03T04:38:57;102515.25;;;5.56;100.00
64544;BME280;50936;51.660;5.616;2023-05-03T04:41:24;102509.16;;;5.90;100.00
64544;BME280;50936;51.660;5.616;2023-05-03T04:43:52;102511.22;;;6.18;100.00
64544;BME280;50936;51.660;5.616;2023-05-03T04:46:20;102517.13;;;6.32;100.00
64544;BME280;50936;51.660;5.616;2023-05-03T04:48:48;102530.09;;;6.50;100.00
64544;BME280;50936;51.660;5.616;2023-05-03T04:51:16;102530.50;;;6.68;100.00
64544;BME280;50936;51.660;5.616;2023-05-03T04:53:44;102530.44;;;6.71;100.00
64544;BME280;50936;51.660;5.616;2023-05-03T04:56:15;102539.66;;;6.61;100.00
64544;BME280;50936;51.660;5.616;2023-05-03T04:58:43;102541.78;;;6.46;100.00
64544;BME280;50936;51.660;5.616;2023-05-03T05:01:12;102544.03;;;6.29;100.00
64544;BME280;50936;51.660;5.616;2023-05-03T05:03:39;102553.19;;;6.19;100.00
64544;BME280;50936;51.660;5.616;2023-05-03T05:06:13;102556.94;;;6.11;100.00
64544;BME280;50936;51.660;5.616;2023-05-03T05:08:41;102552.59;;;6.06;100.00
64544;BME280;50936;51.660;5.616;2023-05-03T05:11:11;102565.78;;;6.16;100.00
64544;BME280;50936;51.660;5.616;2023-05-03T05:13:40;102559.50;;;6.18;100.00
64544;BME280;50936;51.660;5.616;2023-05-03T05:16:07;102564.88;;;6.18;100.00
64544;BME280;50936;51.660;5.616;2023-05-03T05:18:35;102569.91;;;6.30;100.00
64544;BME280;50936;51.660;5.616;2023-05-03T05:21:05;102568.97;;;6.34;100.00
64544;BME280;50936;51.660;5.616;2023-05-03T05:23:34;102563.66;;;6.31;100.00
64544;BME280;50936;51.660;5.616;2023-05-03T05:26:02;102568.78;;;6.40;100.00
64544;BME280;50936;51.660;5.616;2023-05-03T05:28:31;102565.63;;;6.60;100.00
64544;BME280;50936;51.660;5.616;2023-05-03T05:30:59;102567.53;;;6.55;100.00
64544;BME280;50936;51.660;5.616;2023-05-03T05:33:26;102570.25;;;6.53;100.00
64544;BME280;50936;51.660;5.616;2023-05-03T05:35:54;102562.81;;;6.65;100.00
64544;BME280;50936;51.660;5.616;2023-05-03T05:38:21;102571.78;;;6.64;100.00
64544;BME280;50936;51.660;5.616;2023-05-03T05:40:51;102572.03;;;6.54;100.00
64544;BME280;50936;51.660;5.616;2023-05-03T05:43:19;102579.25;;;6.52;100.00
64544;BME280;50936;51.660;5.616;2023-05-03T05:45:46;102578.16;;;6.60;100.00
64544;BME280;50936;51.660;5.616;2023-05-03T05:48:13;102579.88;;;6.62;100.00
64544;BME280;50936;51.660;5.616;2023-05-03T05:50:41;102571.78;;;6.64;100.00
64544;BME280;50936;51.660;5.616;2023-05-03T05:53:10;102571.59;;;6.71;100.00
64544;BME280;50936;51.660;5.616;2023-05-03T05:55:42;102576.66;;;6.84;100.00
64544;BME280;50936;51.660;5.616;2023-05-03T05:58:10;102580.78;;;6.97;100.00
64544;BME280;50936;51.660;5.616;2023-05-03T06:00:44;102585.91;;;7.06;100.00
64544;BME280;50936;51.660;5.616;2023-05-03T06:03:11;102586.44;;;7.19;100.00
64544;BME280;50936;51.660;5.616;2023-05-03T06:05:39;102577.22;;;7.29;100.00
64544;BME280;50936;51.660;5.616;2023-05-03T06:08:08;102579.63;;;7.39;99.81
64544;BME280;50936;51.660;5.616;2023-05-03T06:10:36;102577.94;;;7.67;98.67
64544;BME280;50936;51.660;5.616;2023-05-03T06:13:03;102574.84;;;7.80;97.23
64544;BME280;50936;51.660;5.616;2023-05-03T06:15:31;102584.22;;;7.96;96.01
64544;BME280;50936;51.660;5.616;2023-05-03T06:17:58;102576.97;;;7.98;96.22
64544;BME280;50936;51.660;5.616;2023-05-03T06:20:25;102586.81;;;7.99;96.36
64544;BME280;50936;51.660;5.616;2023-05-03T06:22:53;102583.94;;;8.05;96.63
64544;BME280;50936;51.660;5.616;2023-05-03T06:25:20;102572.88;;;8.15;95.99
64544;BME280;50936;51.660;5.616;2023-05-03T06:27:48;102565.06;;;8.35;95.07
64544;BME280;50936;51.660;5.616;2023-05-03T06:30:19;102579.09;;;8.46;93.21
64544;BME280;50936;51.660;5.616;2023-05-03T06:32:47;102575.56;;;8.44;92.29
64544;BME280;50936;51.660;5.616;2023-05-03T06:35:16;102565.06;;;8.35;91.69
64544;BME280;50936;51.660;5.616;2023-05-03T06:37:45;102574.81;;;8.66;91.80
64544;BME280;50936;51.660;5.616;2023-05-03T06:40:12;102564.88;;;8.95;89.02
64544;BME280;50936;51.660;5.616;2023-05-03T06:42:39;102574.75;;;9.19;87.08
64544;BME280;50936;51.660;5.616;2023-05-03T06:45:13;102566.44;;;9.51;87.96
64544;BME280;50936;51.660;5.616;2023-05-03T06:47:40;102557.34;;;9.77;85.29
64544;BME280;50936;51.660;5.616;2023-05-03T06:50:09;102546.91;;;9.91;82.04
64544;BME280;50936;51.660;5.616;2023-05-03T06:52:37;102546.75;;;9.94;82.21
64544;BME280;50936;51.660;5.616;2023-05-03T06:55:05;102551.16;;;9.97;81.73
64544;BME280;50936;51.660;5.616;2023-05-03T06:57:33;102556.44;;;10.00;78.77
64544;BME280;50936;51.660;5.616;2023-05-03T06:59:59;102554.19;;;10.11;79.93
64544;BME280;50936;51.660;5.616;2023-05-03T07:02:27;102550.53;;;10.36;78.22
64544;BME280;50936;51.660;5.616;2023-05-03T07:04:54;102555.38;;;10.50;76.97
64544;BME280;50936;51.660;5.616;2023-05-03T07:07:21;102550.31;;;10.63;76.03
64544;BME280;50936;51.660;5.616;2023-05-03T07:09:48;102556.72;;;10.81;75.32
64544;BME280;50936;51.660;5.616;2023-05-03T07:12:15;102549.25;;;10.87;75.03
64544;BME280;50936;51.660;5.616;2023-05-03T07:14:42;102560.53;;;10.97;73.67
64544;BME280;50936;51.660;5.616;2023-05-03T07:17:10;102556.50;;;11.07;74.59
64544;BME280;50936;51.660;5.616;2023-05-03T07:19:37;102555.50;;;11.49;72.25
64544;BME280;50936;51.660;5.616;2023-05-03T07:22:04;102559.25;;;11.85;71.99
64544;BME280;50936;51.660;5.616;2023-05-03T07:24:31;102556.47;;;12.24;67.77
64544;BME280;50936;51.660;5.616;2023-05-03T07:26:58;102561.34;;;12.71;67.15
64544;BME280;50936;51.660;5.616;2023-05-03T07:29:25;102568.06;;;13.34;65.51
64544;BME280;50936;51.660;5.616;2023-05-03T07:31:53;102568.31;;;13.79;60.91
64544;BME280;50936;51.660;5.616;2023-05-03T07:34:20;102559.75;;;14.02;57.39
64544;BME280;50936;51.660;5.616;2023-05-03T07:36:47;102560.72;;;14.17;56.70
64544;BME280;50936;51.660;5.616;2023-05-03T07:39:14;102556.34;;;14.31;54.85
64544;BME280;50936;51.660;5.616;2023-05-03T07:41:41;102556.84;;;14.53;55.17
64544;BME280;50936;51.660;5.616;2023-05-03T07:44:08;102547.63;;;14.72;54.10
64544;BME280;50936;51.660;5.616;2023-05-03T07:46:35;102549.25;;;15.05;54.47
64544;BME280;50936;51.660;5.616;2023-05-03T07:49:03;102544.25;;;15.42;52.23
64544;BME280;50936;51.660;5.616;2023-05-03T07:51:36;102535.91;;;15.59;49.42
64544;BME280;50936;51.660;5.616;2023-05-03T07:54:04;102531.59;;;15.55;50.97
64544;BME280;50936;51.660;5.616;2023-05-03T07:56:31;102532.19;;;15.89;50.70
64544;BME280;50936;51.660;5.616;2023-05-03T07:58:58;102529.78;;;16.11;48.79
64544;BME280;50936;51.660;5.616;2023-05-03T08:01:34;102523.47;;;16.38;46.83
64544;BME280;50936;51.660;5.616;2023-05-03T08:04:01;102522.66;;;16.50;45.91
64544;BME280;50936;51.660;5.616;2023-05-03T08:06:28;102510.41;;;16.43;44.93
64544;BME280;50936;51.660;5.616;2023-05-03T08:08:55;102513.19;;;16.29;45.32
64544;BME280;50936;51.660;5.616;2023-05-03T08:11:22;102511.25;;;16.31;46.08
64544;BME280;50936;51.660;5.616;2023-05-03T08:13:48;102513.19;;;16.29;44.77
64544;BME280;50936;51.660;5.616;2023-05-03T08:16:15;102506.59;;;16.19;44.86
64544;BME280;50936;51.660;5.616;2023-05-03T08:18:42;102503.09;;;16.16;46.14
64544;BME280;50936;51.660;5.616;2023-05-03T08:21:09;102505.41;;;15.95;45.09
64544;BME280;50936;51.660;5.616;2023-05-03T08:23:38;102503.00;;;15.62;45.86
64544;BME280;50936;51.660;5.616;2023-05-03T08:26:05;102503.81;;;15.50;45.91
64544;BME280;50936;51.660;5.616;2023-05-03T08:28:33;102503.03;;;15.33;47.41
64544;BME280;50936;51.660;5.616;2023-05-03T08:31:00;102505.25;;;15.41;48.33
64544;BME280;50936;51.660;5.616;2023-05-03T08:33:30;102499.31;;;15.34;46.46
64544;BME280;50936;51.660;5.616;2023-05-03T08:35:57;102503.03;;;15.33;47.29
64544;BME280;50936;51.660;5.616;2023-05-03T08:38:24;102497.78;;;15.30;48.25
64544;BME280;50936;51.660;5.616;2023-05-03T08:40:53;102496.94;;;15.71;48.29
64544;BME280;50936;51.660;5.616;2023-05-03T08:43:22;102499.03;;;16.09;47.03
64544;BME280;50936;51.660;5.616;2023-05-03T08:45:53;102501.47;;;16.14;46.59
64544;BME280;50936;51.660;5.616;2023-05-03T08:48:21;102495.31;;;16.25;46.37
64544;BME280;50936;51.660;5.616;2023-05-03T08:50:50;102499.00;;;16.24;46.85
64544;BME280;50936;51.660;5.616;2023-05-03T08:53:18;102485.94;;;16.29;46.20
64544;BME280;50936;51.660;5.616;2023-05-03T08:55:45;102489.00;;;16.37;46.43
64544;BME280;50936;51.660;5.616;2023-05-03T08:58:12;102490.56;;;16.41;45.34
64544;BME280;50936;51.660;5.616;2023-05-03T09:00:39;102492.44;;;16.26;45.81
64544;BME280;50936;51.660;5.616;2023-05-03T09:03:10;102494.63;;;16.21;46.09
64544;BME280;50936;51.660;5.616;2023-05-03T09:05:38;102489.47;;;16.16;45.73
64544;BME280;50936;51.660;5.616;2023-05-03T09:08:08;102496.72;;;16.03;46.19
64544;BME280;50936;51.660;5.616;2023-05-03T09:10:39;102497.72;;;15.88;46.49
64544;BME280;50936;51.660;5.616;2023-05-03T09:13:08;102498.81;;;15.85;47.76
64544;BME280;50936;51.660;5.616;2023-05-03T09:15:36;102511.69;;;16.10;45.85
64544;BME280;50936;51.660;5.616;2023-05-03T09:18:14;102502.38;;;16.00;46.22
64544;BME280;50936;51.660;5.616;2023-05-03T09:20:44;102506.91;;;15.87;46.09
64544;BME280;50936;51.660;5.616;2023-05-03T09:23:29;102502.94;;;16.05;47.05
64544;BME280;50936;51.660;5.616;2023-05-03T09:25:58;102514.09;;;16.42;45.67
64544;BME280;50936;51.660;5.616;2023-05-03T09:28:25;102513.25;;;16.42;45.84
64544;BME280;50936;51.660;5.616;2023-05-03T09:31:11;102516.72;;;16.44;45.90
64544;BME280;50936;51.660;5.616;2023-05-03T09:33:39;102509.47;;;16.30;45.05
64544;BME280;50936;51.660;5.616;2023-05-03T09:36:06;102502.28;;;16.29;46.38
64544;BME280;50936;51.660;5.616;2023-05-03T09:38:34;102500.41;;;16.57;46.25
64544;BME280;50936;51.660;5.616;2023-05-03T09:41:04;102498.47;;;16.71;44.54
64544;BME280;50936;51.660;5.616;2023-05-03T09:43:32;102501.72;;;16.64;44.32
64544;BME280;50936;51.660;5.616;2023-05-03T09:46:11;102500.88;;;16.63;45.55
64544;BME280;50936;51.660;5.616;2023-05-03T09:48:39;102500.16;;;17.00;43.58
64544;BME280;50936;51.660;5.616;2023-05-03T09:51:07;102495.69;;;16.86;43.29
64544;BME280;50936;51.660;5.616;2023-05-03T09:53:36;102496.06;;;16.54;43.34
64544;BME280;50936;51.660;5.616;2023-05-03T09:56:06;102483.53;;;16.37;44.38
64544;BME280;50936;51.660;5.616;2023-05-03T09:58:35;102481.59;;;16.39;44.89
64544;BME280;50936;51.660;5.616;2023-05-03T10:01:02;102486.84;;;16.42;44.79
64544;BME280;50936;51.660;5.616;2023-05-03T10:03:43;102492.50;;;16.39;44.73
64544;BME280;50936;51.660;5.616;2023-05-03T10:06:23;102484.44;;;16.38;45.26
64544;BME280;50936;51.660;5.616;2023-05-03T10:11:27;102488.59;;;16.83;43.41
64544;BME280;50936;51.660;5.616;2023-05-03T10:13:54;102482.25;;;17.08;44.32
64544;BME280;50936;51.660;5.616;2023-05-03T10:16:43;102490.00;;;17.53;44.26
64544;BME280;50936;51.660;5.616;2023-05-03T10:19:17;102489.28;;;17.75;42.67
64544;BME280;50936;51.660;5.616;2023-05-03T10:21:58;102490.16;;;17.76;41.42
64544;BME280;50936;51.660;5.616;2023-05-03T10:24:36;102481.19;;;17.37;42.31
64544;BME280;50936;51.660;5.616;2023-05-03T10:32:54;102476.91;;;17.20;42.11
64544;BME280;50936;51.660;5.616;2023-05-03T10:35:25;102484.13;;;17.08;42.68
64544;BME280;50936;51.660;5.616;2023-05-03T10:37:54;102480.19;;;17.12;42.88
64544;BME280;50936;51.660;5.616;2023-05-03T10:40:40;102489.13;;;17.01;43.40
64544;BME280;50936;51.660;5.616;2023-05-03T10:45:58;102483.25;;;16.95;44.44
64544;BME280;50936;51.660;5.616;2023-05-03T10:48:27;102484.44;;;17.16;43.08
64544;BME280;50936;51.660;5.616;2023-05-03T10:50:56;102481.06;;;17.25;43.18
64544;BME280;50936;51.660;5.616;2023-05-03T10:53:43;102481.94;;;17.39;43.44
64544;BME280;50936;51.660;5.616;2023-05-03T10:56:12;102484.41;;;17.55;42.30
64544;BME280;50936;51.660;5.616;2023-05-03T10:58:48;102476.56;;;17.50;42.55
64544;BME280;50936;51.660;5.616;2023-05-03T11:01:17;102479.75;;;17.31;41.67
64544;BME280;50936;51.660;5.616;2023-05-03T11:06:33;102471.13;;;17.24;41.15
64544;BME280;50936;51.660;5.616;2023-05-03T11:09:05;102464.44;;;17.41;42.82
64544;BME280;50936;51.660;5.616;2023-05-03T11:11:36;102459.34;;;17.74;41.94
64544;BME280;50936;51.660;5.616;2023-05-03T11:14:05;102458.00;;;17.79;42.01
64544;BME280;50936;51.660;5.616;2023-05-03T11:16:34;102463.25;;;17.82;41.11
64544;BME280;50936;51.660;5.616;2023-05-03T11:19:02;102456.78;;;17.83;41.58
64544;BME280;50936;51.660;5.616;2023-05-03T11:21:29;102452.75;;;18.13;41.78
64544;BME280;50936;51.660;5.616;2023-05-03T11:24:00;102447.03;;;18.40;41.61
64544;BME280;50936;51.660;5.616;2023-05-03T11:26:27;102445.00;;;18.66;40.78
64544;BME280;50936;51.660;5.616;2023-05-03T11:28:54;102445.75;;;18.69;40.61
64544;BME280;50936;51.660;5.616;2023-05-03T11:31:21;102439.88;;;18.62;42.15
64544;BME280;50936;51.660;5.616;2023-05-03T11:33:49;102439.50;;;18.91;40.53
64544;BME280;50936;51.660;5.616;2023-05-03T11:36:16;102440.97;;;18.95;41.57
64544;BME280;50936;51.660;5.616;2023-05-03T11:38:43;102439.25;;;19.16;40.47
64544;BME280;50936;51.660;5.616;2023-05-03T11:41:16;102437.03;;;19.21;38.98
64544;BME280;50936;51.660;5.616;2023-05-03T11:43:44;102430.78;;;19.08;40.23
64544;BME280;50936;51.660;5.616;2023-05-03T11:46:26;102424.06;;;19.12;39.52
64544;BME280;50936;51.660;5.616;2023-05-03T11:48:57;102420.31;;;19.13;40.42
64544;BME280;50936;51.660;5.616;2023-05-03T11:51:24;102422.56;;;19.19;41.25
64544;BME280;50936;51.660;5.616;2023-05-03T11:53:52;102415.31;;;19.52;40.17
64544;BME280;50936;51.660;5.616;2023-05-03T11:56:19;102419.78;;;19.76;39.28
64544;BME280;50936;51.660;5.616;2023-05-03T11:58:53;102417.25;;;19.95;39.03
64544;BME280;50936;51.660;5.616;2023-05-03T12:01:25;102411.66;;;20.18;38.73
64544;BME280;50936;51.660;5.616;2023-05-03T12:03:59;102403.84;;;20.34;38.58
64544;BME280;50936;51.660;5.616;2023-05-03T12:06:30;102412.56;;;20.39;37.74
64544;BME280;50936;51.660;5.616;2023-05-03T12:09:02;102407.69;;;20.11;37.70
64544;BME280;50936;51.660;5.616;2023-05-03T12:11:39;102403.88;;;20.02;38.58
64544;BME280;50936;51.660;5.616;2023-05-03T12:14:10;102397.13;;;20.27;38.10
64544;BME280;50936;51.660;5.616;2023-05-03T12:16:50;102400.38;;;20.32;36.17
64544;BME280;50936;51.660;5.616;2023-05-03T12:19:37;102384.28;;;20.07;37.66
64544;BME280;50936;51.660;5.616;2023-05-03T12:22:18;102382.75;;;20.14;36.75
64544;BME280;50936;51.660;5.616;2023-05-03T12:24:52;102377.28;;;20.14;37.29
64544;BME280;50936;51.660;5.616;2023-05-03T12:27:19;102377.44;;;20.01;36.89
64544;BME280;50936;51.660;5.616;2023-05-03T12:29:49;102379.34;;;20.00;37.92
64544;BME280;50936;51.660;5.616;2023-05-03T12:32:17;102375.19;;;20.27;37.23
64544;BME280;50936;51.660;5.616;2023-05-03T12:34:48;102374.06;;;20.51;37.01
64544;BME280;50936;51.660;5.616;2023-05-03T12:37:17;102369.13;;;20.66;35.88
64544;BME280;50936;51.660;5.616;2023-05-03T12:39:47;102360.75;;;20.67;36.37
64544;BME280;50936;51.660;5.616;2023-05-03T12:42:34;102357.09;;;20.88;35.65
64544;BME280;50936;51.660;5.616;2023-05-03T12:45:01;102354.44;;;20.76;36.04
64544;BME280;50936;51.660;5.616;2023-05-03T12:47:30;102344.91;;;20.81;36.73
64544;BME280;50936;51.660;5.616;2023-05-03T12:50:05;102336.97;;;21.08;35.53
64544;BME280;50936;51.660;5.616;2023-05-03T12:52:37;102328.84;;;21.07;34.69
64544;BME280;50936;51.660;5.616;2023-05-03T12:55:05;102309.94;;;20.73;35.60
64544;BME280;50936;51.660;5.616;2023-05-03T12:57:37;102326.22;;;20.44;35.87
64544;BME280;50936;51.660;5.616;2023-05-03T13:00:05;102331.03;;;20.30;35.87
64544;BME280;50936;51.660;5.616;2023-05-03T13:02:40;102325.41;;;20.11;36.69
64544;BME280;50936;51.660;5.616;2023-05-03T13:05:27;102319.41;;;20.17;36.63
64544;BME280;50936;51.660;5.616;2023-05-03T13:08:01;102316.38;;;20.41;37.13
64544;BME280;50936;51.660;5.616;2023-05-03T13:10:36;102311.59;;;20.64;35.56
64544;BME280;50936;51.660;5.616;2023-05-03T13:13:05;102309.22;;;20.50;35.34
64544;BME280;50936;51.660;5.616;2023-05-03T13:15:33;102306.34;;;20.30;36.02
64544;BME280;50936;51.660;5.616;2023-05-03T13:18:04;102298.16;;;20.40;35.41
64544;BME280;50936;51.660;5.616;2023-05-03T13:20:32;102294.69;;;20.38;35.42
64544;BME280;50936;51.660;5.616;2023-05-03T13:23:01;102297.25;;;20.30;35.35
64544;BME280;50936;51.660;5.616;2023-05-03T13:25:29;102302.41;;;20.23;36.07
64544;BME280;50936;51.660;5.616;2023-05-03T13:27:59;102289.25;;;20.17;35.63